sensor_id;sensor_type;location;lat;lon;timestamp;pressure;altitude;pressure_sealevel;temperature;humidity
43420;BME280;29017;51.514;-0.178;2023-04-22T00:01:11;100334.66;;;10.98;83.72
43420;BME280;29017;51.514;-0.178;2023-04-22T00:03:38;100331.38;;;10.96;83.74
43420;BME280;29017;51.514;-0.178;2023-04-22T00:06:08;100323.81;;;10.93;83.94
43420;BME280;29017;51.514;-0.178;2023-04-22T00:08:35;100326.94;;;10.88;83.82
43420;BME280;29017;51.514;-0.178;2023-04-22T00:11:02;100320.38;;;10.84;84.14
43420;BME280;29017;51.514;-0.178;2023-04-22T00:13:29;100318.91;;;10.82;84.36
43420;BME280;29017;51.514;-0.178;2023-04-22T00:15:56;100322.53;;;10.81;84.83
43420;BME280;29017;51.514;-0.178;2023-04-22T00:18:23;100323.66;;;10.78;84.80
43420;BME280;29017;51.514;-0.178;2023-04-22T00:20:50;100316.13;;;10.75;84.84
43420;BME280;29017;51.514;-0.178;2023-04-22T00:23:17;100316.13;;;10.75;84.97
43420;BME280;29017;51.514;-0.178;2023-04-22T00:25:44;100311.16;;;10.72;84.67
43420;BME280;29017;51.514;-0.178;2023-04-22T00:28:11;100309.72;;;10.69;84.55
43420;BME280;29017;51.514;-0.178;2023-04-22T00:30:38;100300.31;;;10.67;84.75
43420;BME280;29017;51.514;-0.178;2023-04-22T00:33:05;100296.06;;;10.66;85.15
43420;BME280;29017;51.514;-0.178;2023-04-22T00:35:32;100291.78;;;10.65;85.36
43420;BME280;29017;51.514;-0.178;2023-04-22T00:37:59;100288.19;;;10.66;85.74
43420;BME280;29017;51.514;-0.178;2023-04-22T00:40:25;100290.31;;;10.62;85.37
43420;BME280;29017;51.514;-0.178;2023-04-22T00:42:52;100280.78;;;10.61;85.51
43420;BME280;29017;51.514;-0.178;2023-04-22T00:45:20;100280.13;;;10.59;85.77
43420;BME280;29017;51.514;-0.178;2023-04-22T00:47:47;100279.28;;;10.59;86.00
43420;BME280;29017;51.514;-0.178;2023-04-22T00:50:14;100275.03;;;10.58;86.41
43420;BME280;29017;51.514;-0.178;2023-04-22T00:52:41;100275.22;;;10.56;86.42
43420;BME280;29017;51.514;-0.178;2023-04-22T00:55:09;100278.81;;;10.55;86.48
43420;BME280;29017;51.514;-0.178;2023-04-22T00:57:36;100272.56;;;10.56;86.43
43420;BME280;29017;51.514;-0.178;2023-04-22T01:00:04;100270.25;;;10.53;86.22
43420;BME280;29017;51.514;-0.178;2023-04-22T01:02:31;100273.88;;;10.52;85.88
43420;BME280;29017;51.514;-0.178;2023-04-22T01:04:59;100280.94;;;10.52;86.00
43420;BME280;29017;51.514;-0.178;2023-04-22T01:07:26;100264.69;;;10.48;85.53
43420;BME280;29017;51.514;-0.178;2023-04-22T01:09:53;100266.16;;;10.43;85.44
43420;BME280;29017;51.514;-0.178;2023-04-22T01:12:20;100257.63;;;10.41;85.68
43420;BME280;29017;51.514;-0.178;2023-04-22T01:14:47;100252.38;;;10.41;86.16
43420;BME280;29017;51.514;-0.178;2023-04-22T01:17:15;100246.59;;;10.37;86.13
43420;BME280;29017;51.514;-0.178;2023-04-22T01:19:42;100244.78;;;10.38;86.34
43420;BME280;29017;51.514;-0.178;2023-04-22T01:22:09;100244.97;;;10.36;86.36
43420;BME280;29017;51.514;-0.178;2023-04-22T01:24:38;100244.47;;;10.33;86.06
43420;BME280;29017;51.514;-0.178;2023-04-22T01:27:05;100248.91;;;10.32;86.73
43420;BME280;29017;51.514;-0.178;2023-04-22T01:29:32;100240.03;;;10.33;87.04
43420;BME280;29017;51.514;-0.178;2023-04-22T01:31:59;100243.66;;;10.32;86.94
43420;BME280;29017;51.514;-0.178;2023-04-22T01:34:26;100243.00;;;10.30;86.94
43420;BME280;29017;51.514;-0.178;2023-04-22T01:36:53;100247.44;;;10.29;86.47
43420;BME280;29017;51.514;-0.178;2023-04-22T01:39:20;100237.25;;;10.26;86.47
43420;BME280;29017;51.514;-0.178;2023-04-22T01:41:47;100239.03;;;10.26;86.45
43420;BME280;29017;51.514;-0.178;2023-04-22T01:44:14;100228.72;;;10.24;86.24
43420;BME280;29017;51.514;-0.178;2023-04-22T01:46:41;100234.28;;;10.21;86.20
43420;BME280;29017;51.514;-0.178;2023-04-22T01:49:08;100236.75;;;10.23;86.51
43420;BME280;29017;51.514;-0.178;2023-04-22T01:51:35;100231.34;;;10.24;86.42
43420;BME280;29017;51.514;-0.178;2023-04-22T01:54:02;100236.91;;;10.21;86.09
43420;BME280;29017;51.514;-0.178;2023-04-22T01:56:29;100231.63;;;10.13;85.55
43420;BME280;29017;51.514;-0.178;2023-04-22T01:58:56;100232.78;;;10.11;86.43
43420;BME280;29017;51.514;-0.178;2023-04-22T02:01:23;100226.88;;;10.09;86.48
43420;BME280;29017;51.514;-0.178;2023-04-22T02:03:50;100223.91;;;10.04;86.57
43420;BME280;29017;51.514;-0.178;2023-04-22T02:06:17;100235.56;;;10.01;86.53
43420;BME280;29017;51.514;-0.178;2023-04-22T02:08:44;100234.75;;;10.01;87.10
43420;BME280;29017;51.514;-0.178;2023-04-22T02:11:11;100235.75;;;10.00;87.14
43420;BME280;29017;51.514;-0.178;2023-04-22T02:13:40;100238.38;;;10.00;87.45
43420;BME280;29017;51.514;-0.178;2023-04-22T02:16:07;100235.91;;;9.98;87.30
43420;BME280;29017;51.514;-0.178;2023-04-22T02:18:34;100232.47;;;9.98;87.57
43420;BME280;29017;51.514;-0.178;2023-04-22T02:21:01;100237.56;;;9.99;87.63
43420;BME280;29017;51.514;-0.178;2023-04-22T02:23:28;100234.94;;;9.99;87.74
43420;BME280;29017;51.514;-0.178;2023-04-22T02:25:55;100240.50;;;9.96;87.79
43420;BME280;29017;51.514;-0.178;2023-04-22T02:28:22;100232.13;;;9.93;87.51
43420;BME280;29017;51.514;-0.178;2023-04-22T02:30:48;100226.88;;;9.93;87.62
43420;BME280;29017;51.514;-0.178;2023-04-22T02:33:15;100227.69;;;9.93;87.60
43420;BME280;29017;51.514;-0.178;2023-04-22T02:35:42;100225.22;;;9.92;87.68
43420;BME280;29017;51.514;-0.178;2023-04-22T02:38:09;100221.13;;;9.89;87.49
43420;BME280;29017;51.514;-0.178;2023-04-22T02:40:36;100229.31;;;9.86;87.18
43420;BME280;29017;51.514;-0.178;2023-04-22T02:43:03;100222.44;;;9.85;87.49
43420;BME280;29017;51.514;-0.178;2023-04-22T02:45:30;100221.78;;;9.83;87.64
43420;BME280;29017;51.514;-0.178;2023-04-22T02:47:57;100216.19;;;9.78;87.47
43420;BME280;29017;51.514;-0.178;2023-04-22T02:50:24;100212.06;;;9.75;87.81
43420;BME280;29017;51.514;-0.178;2023-04-22T02:52:51;100212.25;;;9.74;87.71
43420;BME280;29017;51.514;-0.178;2023-04-22T02:55:18;100198.63;;;9.78;88.19
43420;BME280;29017;51.514;-0.178;2023-04-22T02:57:44;100203.38;;;9.83;88.50
43420;BME280;29017;51.514;-0.178;2023-04-22T03:00:11;100204.69;;;9.87;88.54
43420;BME280;29017;51.514;-0.178;2023-04-22T03:02:39;100203.72;;;9.88;88.17
43420;BME280;29017;51.514;-0.178;2023-04-22T03:05:06;100196.66;;;9.88;88.01
43420;BME280;29017;51.514;-0.178;2023-04-22T03:07:33;100198.13;;;9.91;87.88
43420;BME280;29017;51.514;-0.178;2023-04-22T03:10:00;100193.38;;;9.95;87.99
43420;BME280;29017;51.514;-0.178;2023-04-22T03:12:27;100193.19;;;9.96;88.01
43420;BME280;29017;51.514;-0.178;2023-04-22T03:14:54;100190.56;;;9.96;87.39
43420;BME280;29017;51.514;-0.178;2023-04-22T03:17:21;100181.22;;;9.94;87.64
43420;BME280;29017;51.514;-0.178;2023-04-22T03:19:48;100174.31;;;9.93;87.14
43420;BME280;29017;51.514;-0.178;2023-04-22T03:22:15;100164.97;;;9.90;86.77
43420;BME280;29017;51.514;-0.178;2023-04-22T03:24:41;100167.75;;;9.88;87.58
43420;BME280;29017;51.514;-0.178;2023-04-22T03:27:09;100169.56;;;9.88;87.55
43420;BME280;29017;51.514;-0.178;2023-04-22T03:29:36;100166.25;;;9.86;86.96
43420;BME280;29017;51.514;-0.178;2023-04-22T03:32:06;100162.47;;;9.80;86.89
43420;BME280;29017;51.514;-0.178;2023-04-22T03:34:33;100157.56;;;9.77;87.22
43420;BME280;29017;51.514;-0.178;2023-04-22T03:37:02;100158.53;;;9.76;87.66
43420;BME280;29017;51.514;-0.178;2023-04-22T03:39:29;100152.00;;;9.72;87.33
43420;BME280;29017;51.514;-0.178;2023-04-22T03:41:56;100155.09;;;9.68;87.42
43420;BME280;29017;51.514;-0.178;2023-04-22T03:44:23;100155.25;;;9.66;87.86
43420;BME280;29017;51.514;-0.178;2023-04-22T03:46:50;100153.63;;;9.65;87.81
43420;BME280;29017;51.514;-0.178;2023-04-22T03:49:17;100162.50;;;9.64;87.45
43420;BME280;29017;51.514;-0.178;2023-04-22T03:51:44;100148.03;;;9.60;87.44
43420;BME280;29017;51.514;-0.178;2023-04-22T03:54:11;100160.19;;;9.53;87.30
43420;BME280;29017;51.514;-0.178;2023-04-22T03:56:37;100157.06;;;9.50;87.41
43420;BME280;29017;51.514;-0.178;2023-04-22T03:59:04;100150.34;;;9.47;87.81
43420;BME280;29017;51.514;-0.178;2023-04-22T04:01:31;100150.00;;;9.42;88.16
43420;BME280;29017;51.514;-0.178;2023-04-22T04:03:58;100139.97;;;9.37;88.13
43420;BME280;29017;51.514;-0.178;2023-04-22T04:06:26;100141.13;;;9.35;88.31
43420;BME280;29017;51.514;-0.178;2023-04-22T04:08:53;100129.81;;;9.34;88.98
43420;BME280;29017;51.514;-0.178;2023-04-22T04:11:20;100135.56;;;9.38;88.90
43420;BME280;29017;51.514;-0.178;2023-04-22T04:13:47;100133.91;;;9.37;89.00
43420;BME280;29017;51.514;-0.178;2023-04-22T04:16:14;100127.00;;;9.36;88.81
43420;BME280;29017;51.514;-0.178;2023-04-22T04:18:42;100134.88;;;9.36;89.10
43420;BME280;29017;51.514;-0.178;2023-04-22T04:21:09;100133.09;;;9.36;89.23
43420;BME280;29017;51.514;-0.178;2023-04-22T04:23:36;100133.91;;;9.37;89.12
43420;BME280;29017;51.514;-0.178;2023-04-22T04:26:03;100134.25;;;9.34;88.80
43420;BME280;29017;51.514;-0.178;2023-04-22T04:28:31;100139.47;;;9.26;88.33
43420;BME280;29017;51.514;-0.178;2023-04-22T04:31:00;100138.16;;;9.22;88.21
43420;BME280;29017;51.514;-0.178;2023-04-22T04:33:28;100138.97;;;9.22;88.80
43420;BME280;29017;51.514;-0.178;2023-04-22T04:35:57;100135.53;;;9.22;88.67
43420;BME280;29017;51.514;-0.178;2023-04-22T04:38:25;100136.50;;;9.21;88.38
43420;BME280;29017;51.514;-0.178;2023-04-22T04:40:52;100132.22;;;9.20;88.52
43420;BME280;29017;51.514;-0.178;2023-04-22T04:43:19;100135.84;;;9.19;88.58
43420;BME280;29017;51.514;-0.178;2023-04-22T04:45:46;100129.13;;;9.16;88.34
43420;BME280;29017;51.514;-0.178;2023-04-22T04:48:14;100122.41;;;9.14;88.65
43420;BME280;29017;51.514;-0.178;2023-04-22T04:50:42;100126.97;;;9.12;88.43
43420;BME280;29017;51.514;-0.178;2023-04-22T04:53:10;100137.81;;;9.09;88.21
43420;BME280;29017;51.514;-0.178;2023-04-22T04:55:37;100130.91;;;9.08;89.00
43420;BME280;29017;51.514;-0.178;2023-04-22T04:58:04;100136.00;;;9.09;89.19
43420;BME280;29017;51.514;-0.178;2023-04-22T05:00:31;100132.72;;;9.07;88.96
43420;BME280;29017;51.514;-0.178;2023-04-22T05:02:57;100134.00;;;9.03;88.86
43420;BME280;29017;51.514;-0.178;2023-04-22T05:05:24;100137.97;;;9.07;89.90
43420;BME280;29017;51.514;-0.178;2023-04-22T05:07:51;100128.94;;;9.10;90.09
43420;BME280;29017;51.514;-0.178;2023-04-22T05:10:19;100126.97;;;9.12;89.41
43420;BME280;29017;51.514;-0.178;2023-04-22T05:12:46;100123.53;;;9.11;89.08
43420;BME280;29017;51.514;-0.178;2023-04-22T05:15:13;100125.19;;;9.12;88.92
43420;BME280;29017;51.514;-0.178;2023-04-22T05:17:40;100127.47;;;9.15;89.22
43420;BME280;29017;51.514;-0.178;2023-04-22T05:20:08;100127.31;;;9.17;88.73
43420;BME280;29017;51.514;-0.178;2023-04-22T05:22:35;100125.66;;;9.16;88.68
43420;BME280;29017;51.514;-0.178;2023-04-22T05:25:03;100125.50;;;9.17;88.60
43420;BME280;29017;51.514;-0.178;2023-04-22T05:27:30;100130.28;;;9.22;88.95
43420;BME280;29017;51.514;-0.178;2023-04-22T05:29:57;100130.75;;;9.25;89.00
43420;BME280;29017;51.514;-0.178;2023-04-22T05:32:24;100122.59;;;9.28;88.41
43420;BME280;29017;51.514;-0.178;2023-04-22T05:34:51;100123.06;;;9.32;88.84
43420;BME280;29017;51.514;-0.178;2023-04-22T05:37:18;100123.06;;;9.32;88.41
43420;BME280;29017;51.514;-0.178;2023-04-22T05:39:45;100128.31;;;9.32;88.07
43420;BME280;29017;51.514;-0.178;2023-04-22T05:42:13;100135.22;;;9.33;87.83
43420;BME280;29017;51.514;-0.178;2023-04-22T05:44:40;100132.09;;;9.37;87.92
43420;BME280;29017;51.514;-0.178;2023-04-22T05:47:07;100130.94;;;9.40;87.69
43420;BME280;29017;51.514;-0.178;2023-04-22T05:49:33;100139.66;;;9.40;87.63
43420;BME280;29017;51.514;-0.178;2023-04-22T05:52:00;100139.50;;;9.42;87.42
43420;BME280;29017;51.514;-0.178;2023-04-22T05:54:27;100136.53;;;9.45;87.56
43420;BME280;29017;51.514;-0.178;2023-04-22T05:56:55;100140.81;;;9.46;87.42
43420;BME280;29017;51.514;-0.178;2023-04-22T05:59:22;100139.50;;;9.50;87.44
43420;BME280;29017;51.514;-0.178;2023-04-22T06:01:49;100138.34;;;9.53;86.90
43420;BME280;29017;51.514;-0.178;2023-04-22T06:04:17;100128.03;;;9.59;87.10
43420;BME280;29017;51.514;-0.178;2023-04-22T06:06:44;100122.44;;;9.62;86.78
43420;BME280;29017;51.514;-0.178;2023-04-22T06:09:11;100119.31;;;9.67;86.91
43420;BME280;29017;51.514;-0.178;2023-04-22T06:11:38;100119.97;;;9.69;86.12
43420;BME280;29017;51.514;-0.178;2023-04-22T06:14:06;100117.69;;;9.74;86.34
43420;BME280;29017;51.514;-0.178;2023-04-22T06:16:33;100105.38;;;9.74;86.09
43420;BME280;29017;51.514;-0.178;2023-04-22T06:18:59;100106.69;;;9.78;86.15
43420;BME280;29017;51.514;-0.178;2023-04-22T06:21:26;100097.13;;;9.85;86.17
43420;BME280;29017;51.514;-0.178;2023-04-22T06:23:54;100106.00;;;9.93;86.05
43420;BME280;29017;51.514;-0.178;2023-04-22T06:26:21;100118.47;;;9.99;85.51
43420;BME280;29017;51.514;-0.178;2023-04-22T06:28:48;100126.69;;;10.04;85.62
43420;BME280;29017;51.514;-0.178;2023-04-22T06:31:15;100137.34;;;10.10;85.55
43420;BME280;29017;51.514;-0.178;2023-04-22T06:33:45;100137.53;;;10.17;85.26
43420;BME280;29017;51.514;-0.178;2023-04-22T06:36:12;100123.56;;;10.16;85.02
43420;BME280;29017;51.514;-0.178;2023-04-22T06:38:39;100129.78;;;10.23;84.54
43420;BME280;29017;51.514;-0.178;2023-04-22T06:41:06;100124.19;;;10.35;84.32
43420;BME280;29017;51.514;-0.178;2023-04-22T06:43:33;100126.47;;;10.46;83.86
43420;BME280;29017;51.514;-0.178;2023-04-22T06:46:03;100130.38;;;10.50;83.17
43420;BME280;29017;51.514;-0.178;2023-04-22T06:48:30;100133.16;;;10.56;83.24
43420;BME280;29017;51.514;-0.178;2023-04-22T06:50:57;100123.09;;;10.60;83.17
43420;BME280;29017;51.514;-0.178;2023-04-22T06:53:24;100126.69;;;10.67;82.88
43420;BME280;29017;51.514;-0.178;2023-04-22T06:55:51;100133.06;;;10.81;82.92
43420;BME280;29017;51.514;-0.178;2023-04-22T06:58:20;100131.97;;;10.98;82.50
43420;BME280;29017;51.514;-0.178;2023-04-22T07:00:47;100133.13;;;11.26;81.77
43420;BME280;29017;51.514;-0.178;2023-04-22T07:03:14;100141.28;;;11.62;80.82
43420;BME280;29017;51.514;-0.178;2023-04-22T07:05:41;100147.59;;;11.98;78.92
43420;BME280;29017;51.514;-0.178;2023-04-22T07:08:08;100151.00;;;12.36;76.94
43420;BME280;29017;51.514;-0.178;2023-04-22T07:10:35;100152.63;;;12.67;74.78
43420;BME280;29017;51.514;-0.178;2023-04-22T07:13:02;100149.53;;;12.78;74.12
43420;BME280;29017;51.514;-0.178;2023-04-22T07:15:28;100145.09;;;12.78;73.78
43420;BME280;29017;51.514;-0.178;2023-04-22T07:17:56;100151.34;;;12.77;74.00
43420;BME280;29017;51.514;-0.178;2023-04-22T07:20:23;100148.91;;;12.61;73.76
43420;BME280;29017;51.514;-0.178;2023-04-22T07:22:50;100156.00;;;12.46;74.96
43420;BME280;29017;51.514;-0.178;2023-04-22T07:25:17;100163.09;;;12.31;75.09
43420;BME280;29017;51.514;-0.178;2023-04-22T07:27:44;100164.56;;;12.19;75.53
43420;BME280;29017;51.514;-0.178;2023-04-22T07:30:14;100161.81;;;12.12;76.76
43420;BME280;29017;51.514;-0.178;2023-04-22T07:32:41;100154.59;;;12.06;76.71
43420;BME280;29017;51.514;-0.178;2023-04-22T07:35:08;100152.34;;;12.03;76.37
43420;BME280;29017;51.514;-0.178;2023-04-22T07:37:34;100146.94;;;11.96;76.91
43420;BME280;29017;51.514;-0.178;2023-04-22T07:40:01;100150.13;;;11.92;76.83
43420;BME280;29017;51.514;-0.178;2023-04-22T07:42:28;100153.09;;;11.89;76.95
43420;BME280;29017;51.514;-0.178;2023-04-22T07:44:55;100157.56;;;11.88;77.57
43420;BME280;29017;51.514;-0.178;2023-04-22T07:47:22;100149.59;;;11.96;78.68
43420;BME280;29017;51.514;-0.178;2023-04-22T07:49:49;100149.59;;;12.11;77.77
43420;BME280;29017;51.514;-0.178;2023-04-22T07:52:16;100145.28;;;12.33;76.76
43420;BME280;29017;51.514;-0.178;2023-04-22T07:54:44;100146.94;;;12.49;77.26
43420;BME280;29017;51.514;-0.178;2023-04-22T07:57:11;100147.25;;;12.60;75.75
43420;BME280;29017;51.514;-0.178;2023-04-22T07:59:42;100152.75;;;12.59;74.93
43420;BME280;29017;51.514;-0.178;2023-04-22T08:02:09;100157.75;;;12.54;74.89
43420;BME280;29017;51.514;-0.178;2023-04-22T08:04:36;100147.91;;;12.48;76.78
43420;BME280;29017;51.514;-0.178;2023-04-22T08:07:03;100151.81;;;12.37;76.46
43420;BME280;29017;51.514;-0.178;2023-04-22T08:09:51;100145.91;;;12.35;75.80
43420;BME280;29017;51.514;-0.178;2023-04-22T08:12:18;100151.00;;;12.51;75.23
43420;BME280;29017;51.514;-0.178;2023-04-22T08:14:45;100144.25;;;12.78;75.90
43420;BME280;29017;51.514;-0.178;2023-04-22T08:17:11;100142.69;;;12.98;75.07
43420;BME280;29017;51.514;-0.178;2023-04-22T08:19:38;100135.66;;;13.05;73.63
43420;BME280;29017;51.514;-0.178;2023-04-22T08:22:06;100137.50;;;13.05;73.66
43420;BME280;29017;51.514;-0.178;2023-04-22T08:24:32;100134.94;;;12.97;73.88
43420;BME280;29017;51.514;-0.178;2023-04-22T08:27:00;100132.59;;;12.87;74.31
43420;BME280;29017;51.514;-0.178;2023-04-22T08:29:28;100137.16;;;12.78;74.59
43420;BME280;29017;51.514;-0.178;2023-04-22T08:31:55;100134.81;;;12.69;74.81
43420;BME280;29017;51.514;-0.178;2023-04-22T08:34:22;100136.16;;;12.65;74.82
43420;BME280;29017;51.514;-0.178;2023-04-22T08:36:50;100129.25;;;12.64;74.66
43420;BME280;29017;51.514;-0.178;2023-04-22T08:39:17;100128.25;;;12.65;75.07
43420;BME280;29017;51.514;-0.178;2023-04-22T08:41:45;100127.63;;;12.63;74.44
43420;BME280;29017;51.514;-0.178;2023-04-22T08:44:13;100120.53;;;12.63;74.33
43420;BME280;29017;51.514;-0.178;2023-04-22T08:46:42;100129.44;;;12.62;74.44
43420;BME280;29017;51.514;-0.178;2023-04-22T08:49:13;100132.53;;;12.66;75.56
43420;BME280;29017;51.514;-0.178;2023-04-22T08:51:41;100135.63;;;12.69;74.61
43420;BME280;29017;51.514;-0.178;2023-04-22T08:54:09;100123.69;;;12.73;74.31
43420;BME280;29017;51.514;-0.178;2023-04-22T08:56:39;100119.84;;;12.76;74.33
43420;BME280;29017;51.514;-0.178;2023-04-22T08:59:07;100118.03;;;12.76;73.14
43420;BME280;29017;51.514;-0.178;2023-04-22T09:01:35;100115.84;;;12.80;73.27
43420;BME280;29017;51.514;-0.178;2023-04-22T09:04:04;100109.00;;;12.85;72.85
43420;BME280;29017;51.514;-0.178;2023-04-22T09:06:32;100110.47;;;12.88;73.07
43420;BME280;29017;51.514;-0.178;2023-04-22T09:08:59;100117.44;;;12.96;74.20
43420;BME280;29017;51.514;-0.178;2023-04-22T09:11:27;100117.09;;;12.99;73.10
43420;BME280;29017;51.514;-0.178;2023-04-22T09:13:55;100108.22;;;13.06;72.49
43420;BME280;29017;51.514;-0.178;2023-04-22T09:16:22;100110.81;;;13.14;73.15
43420;BME280;29017;51.514;-0.178;2023-04-22T09:18:49;100101.66;;;13.17;72.54
43420;BME280;29017;51.514;-0.178;2023-04-22T09:21:16;100099.09;;;13.23;73.37
43420;BME280;29017;51.514;-0.178;2023-04-22T09:23:51;100100.75;;;13.24;72.17
43420;BME280;29017;51.514;-0.178;2023-04-22T09:26:19;100098.94;;;13.25;71.24
43420;BME280;29017;51.514;-0.178;2023-04-22T09:28:47;100097.47;;;13.22;70.83
43420;BME280;29017;51.514;-0.178;2023-04-22T09:31:14;100099.28;;;13.22;70.05
43420;BME280;29017;51.514;-0.178;2023-04-22T09:33:45;100091.19;;;13.23;70.49
43420;BME280;29017;51.514;-0.178;2023-04-22T09:36:15;100092.06;;;13.31;70.41
43420;BME280;29017;51.514;-0.178;2023-04-22T09:43:56;100091.44;;;13.50;68.24
43420;BME280;29017;51.514;-0.178;2023-04-22T09:46:24;100081.53;;;13.58;69.10
43420;BME280;29017;51.514;-0.178;2023-04-22T09:48:52;100081.03;;;13.69;68.39
43420;BME280;29017;51.514;-0.178;2023-04-22T09:51:23;100088.03;;;13.84;67.29
43420;BME280;29017;51.514;-0.178;2023-04-22T09:59:05;100082.97;;;14.17;64.69
43420;BME280;29017;51.514;-0.178;2023-04-22T10:01:36;100079.75;;;14.21;64.23
43420;BME280;29017;51.514;-0.178;2023-04-22T10:04:03;100084.81;;;14.23;64.08
43420;BME280;29017;51.514;-0.178;2023-04-22T10:06:30;100080.41;;;14.30;64.07
43420;BME280;29017;51.514;-0.178;2023-04-22T10:08:58;100083.94;;;14.37;64.00
43420;BME280;29017;51.514;-0.178;2023-04-22T10:11:26;100087.06;;;14.47;63.71
43420;BME280;29017;51.514;-0.178;2023-04-22T10:13:53;100083.19;;;14.49;62.15
43420;BME280;29017;51.514;-0.178;2023-04-22T10:16:20;100086.06;;;14.54;62.25
43420;BME280;29017;51.514;-0.178;2023-04-22T10:18:48;100082.81;;;14.59;62.69
43420;BME280;29017;51.514;-0.178;2023-04-22T10:21:16;100087.53;;;14.70;62.83
43420;BME280;29017;51.514;-0.178;2023-04-22T10:23:45;100089.59;;;14.75;61.78
43420;BME280;29017;51.514;-0.178;2023-04-22T10:26:21;100089.41;;;14.76;61.16
43420;BME280;29017;51.514;-0.178;2023-04-22T10:28:59;100079.41;;;14.78;60.90
43420;BME280;29017;51.514;-0.178;2023-04-22T10:31:26;100089.03;;;14.86;60.47
43420;BME280;29017;51.514;-0.178;2023-04-22T10:36:29;100087.41;;;14.85;59.71
43420;BME280;29017;51.514;-0.178;2023-04-22T10:41:27;100083.53;;;14.94;58.62
43420;BME280;29017;51.514;-0.178;2023-04-22T10:43:58;100083.97;;;15.04;57.75
43420;BME280;29017;51.514;-0.178;2023-04-22T10:48:59;100083.81;;;15.12;58.51
43420;BME280;29017;51.514;-0.178;2023-04-22T10:59:23;100073.00;;;15.07;56.18
43420;BME280;29017;51.514;-0.178;2023-04-22T11:01:51;100086.25;;;15.14;55.64
43420;BME280;29017;51.514;-0.178;2023-04-22T11:04:20;100081.78;;;15.21;55.74
43420;BME280;29017;51.514;-0.178;2023-04-22T11:09:25;100076.28;;;15.35;54.34
43420;BME280;29017;51.514;-0.178;2023-04-22T11:11:53;100082.63;;;15.41;53.55
43420;BME280;29017;51.514;-0.178;2023-04-22T11:14:20;100077.13;;;15.36;53.55
43420;BME280;29017;51.514;-0.178;2023-04-22T11:16:47;100087.91;;;15.28;55.13
43420;BME280;29017;51.514;-0.178;2023-04-22T11:19:17;100084.63;;;15.19;55.05
43420;BME280;29017;51.514;-0.178;2023-04-22T11:21:44;100092.16;;;15.16;55.76
43420;BME280;29017;51.514;-0.178;2023-04-22T11:24:11;100091.75;;;15.12;55.43
43420;BME280;29017;51.514;-0.178;2023-04-22T11:26:38;100089.72;;;15.08;55.89
43420;BME280;29017;51.514;-0.178;2023-04-22T11:29:07;100093.00;;;15.16;56.56
43420;BME280;29017;51.514;-0.178;2023-04-22T11:31:34;100098.91;;;15.25;57.08
43420;BME280;29017;51.514;-0.178;2023-04-22T11:34:01;100093.63;;;15.31;56.97
43420;BME280;29017;51.514;-0.178;2023-04-22T11:36:29;100101.78;;;15.36;54.97
43420;BME280;29017;51.514;-0.178;2023-04-22T11:38:57;100102.81;;;15.42;52.89
43420;BME280;29017;51.514;-0.178;2023-04-22T11:41:24;100100.19;;;15.49;52.06
43420;BME280;29017;51.514;-0.178;2023-04-22T11:43:51;100105.13;;;15.58;51.33
43420;BME280;29017;51.514;-0.178;2023-04-22T11:46:28;100107.38;;;15.68;49.91
43420;BME280;29017;51.514;-0.178;2023-04-22T11:51:32;100110.81;;;15.81;50.41
43420;BME280;29017;51.514;-0.178;2023-04-22T11:53:59;100109.00;;;15.89;50.05
43420;BME280;29017;51.514;-0.178;2023-04-22T11:56:26;100110.41;;;15.91;48.70
43420;BME280;29017;51.514;-0.178;2023-04-22T11:58:53;100102.06;;;15.88;48.50
43420;BME280;29017;51.514;-0.178;2023-04-22T12:01:20;100114.31;;;15.89;49.02
43420;BME280;29017;51.514;-0.178;2023-04-22T12:03:55;100104.09;;;15.92;48.57
43420;BME280;29017;51.514;-0.178;2023-04-22T12:06:28;100110.22;;;15.93;48.98
43420;BME280;29017;51.514;-0.178;2023-04-22T12:08:56;100107.75;;;15.91;47.52
43420;BME280;29017;51.514;-0.178;2023-04-22T12:11:23;100101.84;;;15.96;50.25
43420;BME280;29017;51.514;-0.178;2023-04-22T12:13:50;100101.22;;;16.00;48.44
43420;BME280;29017;51.514;-0.178;2023-04-22T12:16:17;100101.00;;;16.02;45.68
43420;BME280;29017;51.514;-0.178;2023-04-22T12:21:14;100098.34;;;16.15;47.84
43420;BME280;29017;51.514;-0.178;2023-04-22T12:23:41;100101.16;;;16.26;50.00
43420;BME280;29017;51.514;-0.178;2023-04-22T12:26:09;100104.84;;;16.32;48.85
43420;BME280;29017;51.514;-0.178;2023-04-22T12:28:36;100104.22;;;16.37;48.12
43420;BME280;29017;51.514;-0.178;2023-04-22T12:31:04;100097.25;;;16.42;46.53
43420;BME280;29017;51.514;-0.178;2023-04-22T12:33:31;100092.94;;;16.48;47.03
43420;BME280;29017;51.514;-0.178;2023-04-22T12:35:59;100096.88;;;16.39;47.12
43420;BME280;29017;51.514;-0.178;2023-04-22T12:38:26;100097.31;;;16.29;46.38
43420;BME280;29017;51.514;-0.178;2023-04-22T12:40:53;100101.41;;;16.25;45.75
43420;BME280;29017;51.514;-0.178;2023-04-22T12:43:20;100089.16;;;16.24;46.34
43420;BME280;29017;51.514;-0.178;2023-04-22T12:45:47;100090.78;;;16.25;45.80
43420;BME280;29017;51.514;-0.178;2023-04-22T12:48:14;100093.41;;;16.32;45.53
43420;BME280;29017;51.514;-0.178;2023-04-22T12:50:44;100093.00;;;16.35;45.51
43420;BME280;29017;51.514;-0.178;2023-04-22T12:53:11;100097.44;;;16.41;45.54
43420;BME280;29017;51.514;-0.178;2023-04-22T12:55:39;100087.84;;;16.46;44.42
43420;BME280;29017;51.514;-0.178;2023-04-22T12:58:10;100097.03;;;16.50;44.48
43420;BME280;29017;51.514;-0.178;2023-04-22T13:00:38;100098.84;;;16.56;43.59
43420;BME280;29017;51.514;-0.178;2023-04-22T13:03:05;100103.94;;;16.58;43.17
43420;BME280;29017;51.514;-0.178;2023-04-22T13:05:32;100103.78;;;16.59;43.51
43420;BME280;29017;51.514;-0.178;2023-04-22T13:08:00;100108.66;;;16.62;43.50
43420;BME280;29017;51.514;-0.178;2023-04-22T13:10:33;100110.91;;;16.52;43.83
43420;BME280;29017;51.514;-0.178;2023-04-22T13:13:00;100118.09;;;16.39;44.08
43420;BME280;29017;51.514;-0.178;2023-04-22T13:15:33;100109.97;;;16.27;44.35
43420;BME280;29017;51.514;-0.178;2023-04-22T13:18:00;100112.41;;;16.22;46.83